Time;durP1;ratioP1;P1;durP2;ratioP2;P2;SDS_P1;SDS_P2;PMS_P1;PMS_P2;Temp;Humidity;BMP_temperature;BMP_pressure;BME280_temperature;BME280_humidity;BME280_pressure;Samples;Min_cycle;Max_cycle;Signal;HPM_P1;HPM_P2
2022/12/23 00:01:59;;;;;;;67.20;33.90;;;3.50;99.90;;;;;;6274854;28;20474;-61
2022/12/23 00:05:03;;;;;;;96.83;35.03;;;3.20;99.90;;;;;;6275198;28;20484;-61
2022/12/23 00:08:07;;;;;;;58.73;31.57;;;3.10;99.90;;;;;;6274139;28;20469;-61
2022/12/23 00:11:16;;;;;;;47.63;31.50;;;3.00;99.90;;;;;;6274836;28;20480;-61
2022/12/23 00:17:44;;;;;;;45.63;31.50;;;3.30;99.90;;;;;;6257103;28;20973;-61
2022/12/23 00:20:47;;;;;;;52.30;32.73;;;3.40;99.90;;;;;;6274688;28;20486;-60
2022/12/23 00:23:51;;;;;;;41.17;31.30;;;3.40;99.90;;;;;;6274594;28;20482;-61
2022/12/23 00:26:56;;;;;;;52.20;28.33;;;3.30;99.90;;;;;;6274652;28;20466;-61
2022/12/23 00:29:59;;;;;;;48.03;29.50;;;3.40;99.90;;;;;;6274745;28;20470;-61
2022/12/23 00:33:02;;;;;;;44.33;28.70;;;3.50;99.90;;;;;;6274578;28;20438;-61
2022/12/23 00:36:12;;;;;;;47.40;30.13;;;3.60;99.90;;;;;;6299591;28;20452;-61
2022/12/23 00:42:56;;;;;;;32.93;26.90;;;3.60;99.90;;;;;;6299124;28;20472;-61
2022/12/23 00:45:59;;;;;;;31.60;27.60;;;3.70;99.90;;;;;;6299018;28;20492;-61
2022/12/23 00:52:23;;;;;;;33.83;27.87;;;3.80;99.90;;;;;;6299142;28;20492;-61
2022/12/23 00:55:26;;;;;;;32.23;26.20;;;3.80;99.90;;;;;;6298876;28;20480;-61
2022/12/23 00:58:31;;;;;;;34.37;27.20;;;3.80;99.90;;;;;;6299181;28;20534;-61
2022/12/23 01:08:16;;;;;;;35.20;28.43;;;3.70;99.90;;;;;;6298700;28;20461;-60
2022/12/23 01:11:19;;;;;;;31.40;24.60;;;3.70;99.90;;;;;;6298779;28;20979;-60
2022/12/23 01:14:24;;;;;;;28.57;25.13;;;3.80;99.90;;;;;;6298558;28;20485;-60
2022/12/23 01:17:28;;;;;;;29.10;23.87;;;3.80;99.90;;;;;;6295029;28;20478;-60
2022/12/23 01:20:31;;;;;;;25.40;21.83;;;3.90;99.90;;;;;;6277036;28;20972;-60
2022/12/23 01:23:34;;;;;;;29.07;21.77;;;4.00;99.90;;;;;;6279266;28;20486;-60
2022/12/23 01:26:38;;;;;;;26.43;21.67;;;4.10;99.90;;;;;;6278282;28;20469;-60
2022/12/23 01:29:42;;;;;;;26.40;21.10;;;4.10;99.90;;;;;;6278269;28;20552;-60
2022/12/23 01:32:45;;;;;;;25.47;20.47;;;4.10;99.90;;;;;;6278239;28;20789;-60
2022/12/23 01:35:48;;;;;;;23.03;20.53;;;4.00;99.90;;;;;;6278328;28;20486;-60
2022/12/23 01:38:52;;;;;;;22.37;20.00;;;4.00;99.90;;;;;;6277986;28;20810;-60
2022/12/23 01:45:20;;;;;;;20.00;18.00;;;4.10;99.90;;;;;;6278467;28;20717;-60
2022/12/23 01:48:27;;;;;;;20.33;18.27;;;4.10;99.90;;;;;;6277537;28;20459;-60
2022/12/23 01:51:31;;;;;;;22.27;18.27;;;4.10;99.90;;;;;;6277816;28;20473;-60
2022/12/23 01:54:36;;;;;;;20.90;17.97;;;4.20;99.90;;;;;;6277966;28;20465;-60
2022/12/23 01:57:41;;;;;;;20.03;17.90;;;4.20;99.90;;;;;;6277842;28;20470;-60
2022/12/23 02:04:09;;;;;;;21.30;18.23;;;4.20;99.90;;;;;;6277901;28;20466;-60
2022/12/23 02:10:45;;;;;;;20.97;18.13;;;4.30;99.90;;;;;;6277406;28;20921;-60
2022/12/23 02:17:24;;;;;;;22.80;18.40;;;4.30;99.90;;;;;;6278459;28;20478;-60
2022/12/23 02:21:03;;;;;;;20.30;18.10;;;4.20;99.90;;;;;;6302069;28;20987;-60
2022/12/23 02:24:42;;;;;;;20.17;17.50;;;4.20;99.90;;;;;;6274972;28;21064;-60
2022/12/23 02:28:03;;;;;;;18.67;16.77;;;4.20;99.90;;;;;;6282838;28;20466;-60
2022/12/23 02:31:13;;;;;;;19.67;17.57;;;4.20;99.90;;;;;;6302144;28;20472;-60
2022/12/23 02:34:20;;;;;;;22.07;18.60;;;4.10;99.90;;;;;;6301513;28;20462;-60
2022/12/23 02:37:32;;;;;;;18.30;16.37;;;4.10;99.90;;;;;;6301218;28;20920;-60
2022/12/23 02:40:42;;;;;;;22.70;18.80;;;4.20;99.90;;;;;;6301321;28;20478;-60
2022/12/23 02:43:50;;;;;;;18.57;16.73;;;4.10;99.90;;;;;;6301391;28;20469;-60
2022/12/23 02:46:58;;;;;;;21.87;17.70;;;4.20;99.90;;;;;;6300966;28;20984;-60
2022/12/23 02:50:07;;;;;;;18.07;16.00;;;4.20;99.90;;;;;;6300856;28;20476;-60
2022/12/23 02:53:16;;;;;;;18.93;16.27;;;4.30;99.90;;;;;;6300678;28;20976;-60
2022/12/23 02:56:21;;;;;;;16.93;14.97;;;4.30;99.90;;;;;;6300956;28;20466;-60
2022/12/23 02:59:27;;;;;;;15.50;13.83;;;4.30;99.90;;;;;;6300544;28;20481;-60
2022/12/23 03:02:34;;;;;;;15.70;14.10;;;4.30;99.90;;;;;;6300939;28;20484;-60
2022/12/23 03:05:40;;;;;;;17.20;15.50;;;4.30;99.90;;;;;;6300882;28;20492;-60
2022/12/23 03:08:45;;;;;;;17.93;16.03;;;4.30;99.90;;;;;;6300911;28;20754;-60
2022/12/23 03:11:54;;;;;;;15.13;13.53;;;4.30;99.90;;;;;;6300549;28;20484;-60
2022/12/23 03:15:16;;;;;;;18.17;15.93;;;4.30;99.90;;;;;;6301285;28;20823;-60
2022/12/23 03:18:28;;;;;;;17.70;14.40;;;4.20;99.90;;;;;;6281922;28;20463;-60
2022/12/23 03:21:37;;;;;;;20.60;16.10;;;4.30;99.90;;;;;;6253141;28;20474;-60
2022/12/23 03:24:47;;;;;;;21.07;14.90;;;4.40;99.90;;;;;;6250938;28;20998;-62
2022/12/23 03:27:55;;;;;;;14.53;13.10;;;4.40;99.90;;;;;;6251144;28;21000;-62
2022/12/23 03:31:02;;;;;;;15.90;13.93;;;4.40;99.90;;;;;;6250868;28;20474;-62
2022/12/23 03:34:11;;;;;;;15.77;13.90;;;4.40;99.90;;;;;;6251144;28;20463;-61
2022/12/23 03:37:18;;;;;;;16.87;15.10;;;4.40;99.90;;;;;;6251001;28;20471;-61
2022/12/23 03:40:25;;;;;;;16.27;13.17;;;4.40;99.90;;;;;;6250901;28;20537;-61
2022/12/23 03:43:33;;;;;;;19.10;15.37;;;4.40;99.90;;;;;;6250760;28;20464;-61
2022/12/23 03:46:40;;;;;;;14.70;13.10;;;4.30;99.90;;;;;;6251344;28;20474;-61
2022/12/23 03:49:49;;;;;;;14.20;12.70;;;4.30;99.90;;;;;;6251023;28;20482;-61
2022/12/23 03:52:57;;;;;;;14.17;12.80;;;4.40;99.90;;;;;;6250675;28;20556;-61
2022/12/23 03:56:04;;;;;;;15.43;13.77;;;4.40;99.90;;;;;;6250459;28;20489;-61
2022/12/23 03:59:12;;;;;;;14.20;12.80;;;4.40;99.90;;;;;;6250472;28;20479;-62
2022/12/23 04:02:22;;;;;;;16.83;14.43;;;4.30;99.90;;;;;;6250585;28;20774;-62
2022/12/23 04:05:30;;;;;;;16.23;14.40;;;4.30;99.90;;;;;;6250443;28;20533;-62
2022/12/23 04:08:36;;;;;;;15.07;13.57;;;4.30;99.90;;;;;;6249932;28;20485;-62
2022/12/23 04:11:40;;;;;;;15.87;14.17;;;4.20;99.90;;;;;;6250156;28;20479;-62
2022/12/23 04:14:48;;;;;;;17.23;14.53;;;4.20;99.90;;;;;;6250226;28;20481;-62
2022/12/23 04:17:52;;;;;;;17.43;15.77;;;4.20;99.90;;;;;;6256592;28;20508;-62
2022/12/23 04:20:57;;;;;;;14.70;13.20;;;4.30;99.90;;;;;;6274538;28;20844;-62
2022/12/23 04:24:00;;;;;;;14.50;13.07;;;4.40;99.90;;;;;;6274679;28;20481;-62
2022/12/23 04:27:03;;;;;;;13.63;12.37;;;4.40;99.90;;;;;;6299453;28;20469;-61
2022/12/23 04:30:08;;;;;;;13.80;12.37;;;4.40;99.90;;;;;;6274902;28;20454;-62
2022/12/23 04:33:12;;;;;;;15.03;11.13;;;4.40;99.90;;;;;;6275613;28;20442;-61
2022/12/23 04:36:16;;;;;;;13.07;11.77;;;4.40;99.90;;;;;;6299374;28;20442;-61
2022/12/23 04:39:19;;;;;;;13.17;11.30;;;4.40;99.90;;;;;;6299513;28;20477;-61
2022/12/23 04:42:23;;;;;;;13.97;12.47;;;4.40;99.90;;;;;;6299839;28;20456;-61
2022/12/23 04:45:26;;;;;;;13.53;12.10;;;4.40;99.90;;;;;;6299991;28;20465;-61
2022/12/23 04:48:29;;;;;;;13.80;12.03;;;4.40;99.90;;;;;;6299528;28;20473;-61
2022/12/23 04:51:34;;;;;;;20.70;18.50;;;4.40;99.90;;;;;;6299180;28;20983;-61
2022/12/23 04:54:37;;;;;;;24.37;21.77;;;4.20;99.90;;;;;;6300307;28;20477;-62
2022/12/23 04:57:48;;;;;;;26.37;21.90;;;4.10;99.90;;;;;;6304448;28;20474;-62
2022/12/23 05:01:01;;;;;;;25.67;22.50;;;4.00;99.90;;;;;;6303758;28;20552;-62
2022/12/23 05:04:04;;;;;;;24.60;21.40;;;3.70;99.90;;;;;;6304429;28;20604;-61
2022/12/23 05:07:09;;;;;;;25.33;22.63;;;3.80;99.90;;;;;;6303418;28;20488;-61
2022/12/23 05:10:12;;;;;;;57.47;36.50;;;3.80;99.90;;;;;;6303318;28;20940;-61
2022/12/23 05:13:15;;;;;;;43.53;33.70;;;3.80;99.90;;;;;;6303066;28;20803;-62
2022/12/23 05:16:18;;;;;;;37.37;28.73;;;3.90;99.90;;;;;;6303754;28;20480;-62
2022/12/23 05:19:22;;;;;;;31.03;23.77;;;4.00;99.90;;;;;;6292367;28;21060;-62
2022/12/23 05:22:26;;;;;;;30.03;24.47;;;3.90;99.90;;;;;;6278659;28;20978;-61
2022/12/23 05:25:29;;;;;;;37.87;30.13;;;3.80;99.90;;;;;;6278671;28;20462;-61
2022/12/23 05:28:33;;;;;;;39.90;31.70;;;3.90;99.90;;;;;;6278725;28;20488;-61
2022/12/23 05:31:36;;;;;;;33.37;26.73;;;3.90;99.90;;;;;;6285322;28;20480;-61
2022/12/23 05:34:40;;;;;;;30.80;26.03;;;3.90;99.90;;;;;;6283201;28;20476;-61
2022/12/23 05:37:44;;;;;;;30.50;24.20;;;4.00;99.90;;;;;;6278826;28;20490;-61
2022/12/23 05:40:47;;;;;;;31.30;26.00;;;4.10;99.90;;;;;;6279030;28;20478;-61
2022/12/23 05:43:50;;;;;;;31.80;24.60;;;4.20;99.90;;;;;;6278966;28;20834;-61
2022/12/23 05:46:54;;;;;;;28.13;25.03;;;4.30;99.90;;;;;;6279234;28;20474;-61
2022/12/23 05:49:57;;;;;;;26.40;23.80;;;4.30;99.90;;;;;;6278481;28;20466;-62
2022/12/23 05:53:01;;;;;;;28.57;24.87;;;4.40;99.90;;;;;;6278014;28;20470;-61
2022/12/23 05:56:06;;;;;;;30.63;22.73;;;4.40;99.90;;;;;;6278040;28;20478;-61
2022/12/23 05:59:09;;;;;;;28.13;21.33;;;4.40;99.90;;;;;;6277597;28;20829;-61
2022/12/23 06:02:13;;;;;;;24.40;22.03;;;4.40;99.90;;;;;;6277682;28;20553;-61
2022/12/23 06:05:16;;;;;;;27.33;21.47;;;4.50;99.90;;;;;;6277575;28;20478;-61
2022/12/23 06:08:20;;;;;;;25.57;20.03;;;4.50;99.90;;;;;;6277120;28;20492;-62
2022/12/23 06:11:24;;;;;;;24.70;22.13;;;4.50;99.90;;;;;;6277105;28;20966;-61
2022/12/23 06:14:27;;;;;;;23.23;20.83;;;4.50;99.90;;;;;;6277301;28;20470;-62
2022/12/23 06:17:31;;;;;;;21.40;19.10;;;4.40;99.90;;;;;;6276993;28;20485;-61
2022/12/23 06:20:34;;;;;;;21.73;19.50;;;4.40;99.90;;;;;;6277168;28;20493;-61
2022/12/23 06:23:39;;;;;;;23.70;19.87;;;4.40;99.90;;;;;;6277151;28;20485;-61
2022/12/23 06:26:42;;;;;;;23.90;20.27;;;4.30;99.90;;;;;;6276998;28;20470;-62
2022/12/23 06:29:45;;;;;;;23.17;20.70;;;4.30;99.90;;;;;;6277225;28;20477;-61
2022/12/23 06:32:49;;;;;;;28.97;21.30;;;4.30;99.90;;;;;;6277160;28;20470;-61
2022/12/23 06:35:52;;;;;;;28.17;22.77;;;4.30;99.90;;;;;;6277153;28;20470;-61
2022/12/23 06:38:56;;;;;;;23.33;20.80;;;4.30;99.90;;;;;;6276714;28;20489;-61
2022/12/23 06:42:00;;;;;;;27.13;22.03;;;4.40;99.90;;;;;;6276857;28;20489;-61
2022/12/23 06:45:03;;;;;;;24.70;22.07;;;4.40;99.90;;;;;;6276675;28;20474;-62
2022/12/23 06:48:07;;;;;;;27.90;22.27;;;4.40;99.90;;;;;;6277018;28;20778;-62
2022/12/23 06:51:11;;;;;;;27.77;21.70;;;4.40;99.90;;;;;;6277393;28;20734;-61
2022/12/23 06:54:16;;;;;;;28.20;23.60;;;4.40;99.90;;;;;;6276630;28;20906;-62
2022/12/23 06:57:19;;;;;;;25.80;22.43;;;4.40;99.90;;;;;;6276796;28;20520;-61
2022/12/23 07:00:22;;;;;;;22.40;20.30;;;4.50;99.90;;;;;;6276470;28;20929;-61
2022/12/23 07:03:26;;;;;;;25.07;22.40;;;4.50;99.90;;;;;;6276513;28;20516;-61
2022/12/23 07:06:29;;;;;;;24.53;22.03;;;4.60;99.90;;;;;;6276315;28;20533;-61
2022/12/23 07:09:33;;;;;;;24.13;21.63;;;4.50;99.90;;;;;;6275834;28;20965;-61
2022/12/23 07:12:37;;;;;;;23.73;20.53;;;4.50;99.90;;;;;;6275734;28;20470;-61
2022/12/23 07:15:40;;;;;;;23.60;21.07;;;4.50;99.90;;;;;;6276019;28;20521;-61
2022/12/23 07:18:43;;;;;;;24.73;22.17;;;4.50;99.90;;;;;;6275045;28;20484;-62
2022/12/23 07:21:47;;;;;;;24.37;21.93;;;4.50;99.90;;;;;;6276090;28;20496;-61
2022/12/23 07:24:51;;;;;;;24.00;21.27;;;4.50;99.90;;;;;;6275892;28;20477;-61
2022/12/23 07:27:55;;;;;;;22.57;20.30;;;4.50;99.90;;;;;;6275824;28;20478;-61
2022/12/23 07:30:58;;;;;;;26.60;22.83;;;4.50;99.90;;;;;;6275662;28;20945;-61
2022/12/23 07:34:01;;;;;;;23.40;20.87;;;4.50;99.90;;;;;;6275528;28;20477;-61
2022/12/23 07:37:04;;;;;;;26.00;21.27;;;4.50;99.90;;;;;;6275955;28;20470;-61
2022/12/23 07:40:10;;;;;;;28.80;25.50;;;4.50;99.90;;;;;;6275872;28;20485;-62
2022/12/23 07:43:13;;;;;;;25.83;22.63;;;4.60;99.90;;;;;;6275598;28;20996;-62
2022/12/23 07:46:16;;;;;;;27.77;23.90;;;4.70;99.90;;;;;;6285154;28;20470;-61
2022/12/23 07:49:20;;;;;;;24.30;21.70;;;4.60;99.90;;;;;;6281241;28;20474;-62
2022/12/23 07:52:23;;;;;;;24.40;21.87;;;4.70;99.90;;;;;;6275938;28;20481;-62
2022/12/23 07:55:27;;;;;;;28.43;21.00;;;4.70;99.90;;;;;;6271162;28;20474;-63
2022/12/23 07:58:31;;;;;;;24.37;21.87;;;4.70;99.90;;;;;;6275185;28;20474;-62
2022/12/23 08:01:34;;;;;;;25.23;22.53;;;4.70;99.90;;;;;;6275421;28;20489;-61
2022/12/23 08:04:37;;;;;;;24.37;21.73;;;4.60;99.90;;;;;;6274900;28;20489;-62
2022/12/23 08:07:48;;;;;;;27.87;23.57;;;4.60;99.90;;;;;;6274833;28;20497;-62
2022/12/23 08:10:57;;;;;;;24.97;21.00;;;4.50;99.90;;;;;;6275156;28;20496;-61
2022/12/23 08:14:00;;;;;;;25.60;22.90;;;4.50;99.90;;;;;;6275137;28;20942;-61
2022/12/23 08:17:03;;;;;;;26.73;22.53;;;4.50;99.90;;;;;;6274851;28;20481;-62
2022/12/23 08:20:08;;;;;;;26.33;23.60;;;4.60;99.90;;;;;;6274818;28;20545;-61
2022/12/23 08:23:11;;;;;;;24.30;21.77;;;4.80;99.90;;;;;;6274805;28;20481;-61
2022/12/23 08:26:17;;;;;;;26.70;22.10;;;5.00;99.90;;;;;;6274764;28;20481;-62
2022/12/23 08:29:20;;;;;;;24.37;21.77;;;5.10;99.90;;;;;;6277399;28;20480;-62
2022/12/23 08:32:26;;;;;;;26.40;22.63;;;5.10;99.90;;;;;;6279758;28;20568;-61
2022/12/23 08:35:30;;;;;;;28.87;23.10;;;5.10;99.90;;;;;;6279947;28;20477;-61
2022/12/23 08:38:34;;;;;;;25.43;22.23;;;5.10;99.90;;;;;;6279246;28;20810;-61
2022/12/23 08:41:40;;;;;;;23.33;20.97;;;5.10;99.90;;;;;;6279785;28;20474;-62
2022/12/23 08:44:44;;;;;;;30.20;24.27;;;5.20;99.90;;;;;;6279717;28;20838;-61
2022/12/23 08:47:47;;;;;;;24.53;21.50;;;5.20;99.90;;;;;;6279316;28;20482;-61
2022/12/23 08:50:50;;;;;;;25.30;22.70;;;5.20;99.90;;;;;;6279506;28;20470;-61
2022/12/23 08:53:55;;;;;;;25.03;21.60;;;5.30;99.90;;;;;;6279149;28;20820;-61
2022/12/23 08:57:04;;;;;;;23.50;21.10;;;5.40;99.90;;;;;;6279012;28;20470;-61
2022/12/23 09:00:08;;;;;;;26.87;22.30;;;5.50;99.90;;;;;;6279255;28;20458;-61
2022/12/23 09:03:12;;;;;;;25.90;20.60;;;5.80;99.90;;;;;;6279473;28;20445;-62
2022/12/23 09:06:17;;;;;;;28.80;22.50;;;5.90;99.90;;;;;;6279342;28;20939;-62
2022/12/23 09:09:28;;;;;;;28.30;21.63;;;6.10;99.90;;;;;;6278926;28;20458;-62
2022/12/23 09:12:33;;;;;;;22.10;19.90;;;6.10;99.90;;;;;;6278582;28;20977;-62
2022/12/23 09:15:39;;;;;;;22.60;20.30;;;6.20;99.90;;;;;;6278680;28;20862;-62
2022/12/23 09:18:43;;;;;;;21.43;19.13;;;6.30;99.90;;;;;;6278985;28;20462;-62
2022/12/23 09:21:46;;;;;;;20.90;18.73;;;6.30;99.90;;;;;;6278750;28;20513;-62
2022/12/23 09:24:49;;;;;;;25.13;19.83;;;6.40;99.90;;;;;;6278670;28;20474;-62
2022/12/23 09:27:54;;;;;;;19.60;17.60;;;6.40;99.90;;;;;;6278415;28;20846;-62
2022/12/23 09:30:57;;;;;;;19.53;17.47;;;6.50;99.90;;;;;;6278744;28;20482;-62
2022/12/23 09:34:00;;;;;;;23.43;19.67;;;6.60;99.90;;;;;;6278376;28;20462;-62
2022/12/23 09:37:04;;;;;;;20.40;18.40;;;6.70;99.90;;;;;;6278389;28;20489;-62
2022/12/23 09:40:10;;;;;;;24.33;21.77;;;6.70;99.90;;;;;;6277593;28;20474;-62
2022/12/23 09:43:28;;;;;;;24.83;20.60;;;6.80;99.90;;;;;;6277609;28;20519;-61
2022/12/23 09:46:33;;;;;;;25.50;19.40;;;6.90;99.90;;;;;;6277667;28;20996;-62
2022/12/23 09:49:44;;;;;;;27.50;19.97;;;7.00;99.90;;;;;;6277765;28;20914;-61
2022/12/23 09:52:55;;;;;;;24.27;21.07;;;7.10;99.90;;;;;;6278056;28;20482;-61
2022/12/23 09:56:07;;;;;;;26.13;22.60;;;7.20;99.90;;;;;;6277204;28;20466;-61
2022/12/23 09:59:22;;;;;;;25.40;22.77;;;7.20;99.90;;;;;;6277370;28;20481;-61
2022/12/23 10:02:38;;;;;;;29.97;24.13;;;7.30;99.90;;;;;;6277855;28;20490;-63
2022/12/23 10:05:55;;;;;;;35.13;24.33;;;7.30;99.90;;;;;;6277523;28;20481;-61
2022/12/23 10:09:01;;;;;;;26.77;23.77;;;7.40;99.90;;;;;;6277296;28;21060;-62
2022/12/23 10:12:17;;;;;;;30.90;24.80;;;7.30;99.90;;;;;;6277051;28;20492;-62
2022/12/23 10:15:36;;;;;;;29.77;25.20;;;7.40;99.90;;;;;;6277683;28;20450;-61
2022/12/23 10:18:47;;;;;;;31.53;25.20;;;7.30;99.90;;;;;;6277048;28;20462;-61
2022/12/23 10:21:53;;;;;;;26.33;23.63;;;7.40;99.90;;;;;;6277462;28;20504;-61
2022/12/23 10:24:58;;;;;;;26.27;23.20;;;7.40;99.90;;;;;;6277516;28;20544;-61
2022/12/23 10:28:01;;;;;;;26.53;23.00;;;7.60;99.90;;;;;;6277224;28;20751;-61
2022/12/23 10:31:17;;;;;;;25.03;22.43;;;7.60;99.90;;;;;;6277369;28;20484;-61
2022/12/23 10:34:48;;;;;;;24.23;21.50;;;7.70;99.90;;;;;;6277174;28;20470;-61
2022/12/23 10:37:55;;;;;;;23.17;20.77;;;7.90;99.90;;;;;;6277025;28;20481;-60
2022/12/23 10:41:10;;;;;;;26.03;21.40;;;7.90;99.90;;;;;;6276503;28;20470;-60
2022/12/23 10:44:52;;;;;;;24.80;21.67;;;8.00;99.90;;;;;;6276756;28;20466;-61
2022/12/23 10:48:08;;;;;;;33.97;21.57;;;8.20;99.90;;;;;;6272322;28;20483;-61
2022/12/23 10:51:20;;;;;;;20.70;18.60;;;8.30;99.90;;;;;;6276209;28;20588;-61
2022/12/23 10:54:26;;;;;;;22.00;19.70;;;8.40;99.90;;;;;;6278501;28;20865;-60
2022/12/23 10:57:30;;;;;;;19.93;17.80;;;8.60;99.90;;;;;;6301150;28;20461;-61
2022/12/23 11:00:36;;;;;;;20.70;18.50;;;8.90;99.90;;;;;;6300909;28;20797;-61
2022/12/23 11:03:46;;;;;;;21.13;17.87;;;9.10;99.90;;;;;;6300924;28;21005;-61
2022/12/23 11:06:52;;;;;;;19.10;17.20;;;9.40;99.90;;;;;;6301170;28;20957;-61
2022/12/23 11:10:18;;;;;;;19.30;16.17;;;9.80;99.90;;;;;;6300845;28;20895;-61
2022/12/23 11:13:32;;;;;;;16.33;14.73;;;10.20;99.90;;;;;;6290706;28;20481;-61
2022/12/23 11:16:44;;;;;;;17.97;15.57;;;10.40;99.90;;;;;;6300758;28;20979;-61
2022/12/23 11:20:05;;;;;;;17.13;14.70;;;10.90;99.90;;;;;;6286853;28;20478;-61
2022/12/23 11:23:24;;;;;;;16.97;15.30;;;12.20;99.90;;;;;;6276408;28;20474;-61
2022/12/23 11:26:27;;;;;;;17.30;15.47;;;12.90;99.90;;;;;;6275615;28;20478;-61
2022/12/23 11:29:34;;;;;;;16.90;15.17;;;12.60;99.90;;;;;;6275304;28;20474;-60
2022/12/23 11:32:38;;;;;;;15.47;13.87;;;12.30;99.90;;;;;;6275711;28;20555;-61
2022/12/23 11:35:44;;;;;;;17.00;15.30;;;13.40;99.90;;;;;;6275530;28;20478;-61
2022/12/23 11:38:50;;;;;;;16.83;15.23;;;16.10;99.90;;;;;;6275610;28;20511;-62
2022/12/23 11:41:55;;;;;;;15.63;14.13;;;20.30;91.20;;;;;;6275753;28;20493;-61
2022/12/23 11:45:00;;;;;;;14.03;12.73;;;24.40;67.30;;;;;;6275745;28;20232;-62
2022/12/23 11:48:04;;;;;;;16.40;14.47;;;27.10;52.40;;;;;;6275279;28;20243;-62
2022/12/23 11:51:09;;;;;;;15.10;13.73;;;29.40;44.00;;;;;;6275278;28;20215;-62
2022/12/23 11:54:20;;;;;;;14.97;13.77;;;31.10;37.30;;;;;;6275371;28;20195;-61
2022/12/23 11:57:32;;;;;;;15.40;14.20;;;31.90;33.50;;;;;;6274904;28;20309;-61
2022/12/23 12:00:39;;;;;;;15.03;13.77;;;30.80;31.50;;;;;;6274736;28;20863;-61
2022/12/23 12:03:48;;;;;;;15.37;14.03;;;28.20;34.30;;;;;;6274673;28;20227;-61
2022/12/23 12:06:53;;;;;;;16.17;14.70;;;25.80;38.90;;;;;;6274371;28;20701;-61
2022/12/23 12:10:00;;;;;;;14.60;13.30;;;25.00;40.50;;;;;;6274451;28;20243;-61
2022/12/23 12:13:07;;;;;;;15.33;13.90;;;26.60;38.10;;;;;;6270082;28;20239;-61
2022/12/23 12:16:31;;;;;;;15.67;14.37;;;26.20;38.30;;;;;;6275254;28;20231;-61
2022/12/23 12:19:38;;;;;;;16.07;14.67;;;27.40;38.00;;;;;;6253989;28;20278;-61
2022/12/23 12:22:48;;;;;;;20.97;19.27;;;27.00;37.30;;;;;;6250420;28;20721;-61
2022/12/23 12:25:56;;;;;;;15.30;13.90;;;25.30;39.30;;;;;;6250376;28;20338;-61
2022/12/23 12:29:06;;;;;;;14.57;13.47;;;24.40;41.70;;;;;;6250173;28;20239;-61
2022/12/23 12:32:19;;;;;;;14.50;13.40;;;26.40;39.70;;;;;;6250425;28;20243;-61
2022/12/23 12:35:30;;;;;;;16.40;15.00;;;28.90;36.00;;;;;;6250419;28;20333;-61
2022/12/23 12:38:39;;;;;;;15.03;13.83;;;31.00;32.90;;;;;;6249789;28;20694;-61
2022/12/23 12:41:51;;;;;;;13.83;12.77;;;32.50;30.80;;;;;;6250191;28;20231;-61
2022/12/23 12:45:05;;;;;;;14.32;13.10;;;33.60;28.70;;;;;;6249758;28;20231;-61
2022/12/23 12:48:28;;;;;;;14.68;13.43;;;34.40;28.00;;;;;;6249334;28;20227;-61
2022/12/23 12:51:37;;;;;;;13.35;12.23;;;35.30;27.20;;;;;;6253288;28;20227;-61
2022/12/23 12:54:49;;;;;;;14.20;12.95;;;35.40;25.60;;;;;;6274363;28;20249;-61
2022/12/23 12:57:53;;;;;;;13.98;12.88;;;35.70;25.30;;;;;;6274605;28;20227;-61
2022/12/23 13:01:11;;;;;;;14.85;13.60;;;36.10;25.30;;;;;;6274694;28;20227;-62
2022/12/23 13:04:39;;;;;;;14.25;12.90;;;36.00;24.70;;;;;;6274584;28;20231;-61
2022/12/23 13:07:52;;;;;;;13.40;12.30;;;34.20;25.20;;;;;;6274292;28;20236;-61
2022/12/23 13:11:05;;;;;;;13.70;12.40;;;30.90;27.60;;;;;;6274236;28;20242;-60
2022/12/23 13:14:20;;;;;;;13.90;12.60;;;28.10;30.50;;;;;;6273856;28;20242;-61
2022/12/23 13:17:27;;;;;;;13.07;11.93;;;26.80;33.40;;;;;;6280507;28;20267;-60
2022/12/23 13:20:36;;;;;;;12.63;11.53;;;27.30;32.90;;;;;;6302668;28;20681;-61
2022/12/23 13:23:48;;;;;;;11.40;10.30;;;28.10;32.20;;;;;;6303303;28;20450;-61
2022/12/23 13:27:05;;;;;;;13.63;11.43;;;28.10;31.40;;;;;;6302608;28;20233;-61
2022/12/23 13:30:12;;;;;;;13.90;11.70;;;26.80;32.80;;;;;;6302927;28;20212;-60
2022/12/23 13:33:28;;;;;;;12.17;11.17;;;25.20;35.60;;;;;;6302811;28;20191;-60
2022/12/23 13:36:51;;;;;;;11.90;10.90;;;24.50;37.20;;;;;;6302979;28;20744;-60
2022/12/23 13:40:03;;;;;;;11.27;10.30;;;24.40;37.90;;;;;;6302650;28;20304;-60
2022/12/23 13:43:14;;;;;;;12.23;11.23;;;24.60;37.10;;;;;;6302537;28;20246;-60
2022/12/23 13:46:25;;;;;;;11.17;10.13;;;24.70;37.00;;;;;;6302723;28;20227;-60
2022/12/23 13:49:43;;;;;;;11.63;10.43;;;24.60;37.20;;;;;;6302336;28;20230;-61
2022/12/23 13:53:01;;;;;;;16.37;14.87;;;24.60;37.20;;;;;;6302346;28;20227;-61
2022/12/23 13:56:13;;;;;;;10.80;9.83;;;24.90;36.80;;;;;;6302320;28;20517;-61
2022/12/23 13:59:18;;;;;;;11.93;10.83;;;24.10;37.70;;;;;;6302250;28;20576;-61
2022/12/23 14:02:48;;;;;;;12.53;10.90;;;22.70;39.40;;;;;;6302098;28;20223;-61
2022/12/23 14:05:53;;;;;;;10.70;9.53;;;21.20;41.80;;;;;;6302329;28;20231;-61
2022/12/23 14:08:56;;;;;;;10.87;9.87;;;19.90;44.50;;;;;;6302158;28;20238;-60
2022/12/23 14:12:16;;;;;;;10.83;9.70;;;19.20;46.50;;;;;;6302239;28;20304;-59
2022/12/23 14:15:38;;;;;;;11.07;10.07;;;19.00;46.70;;;;;;6277733;28;20200;-60
2022/12/23 14:19:08;;;;;;;10.87;9.80;;;18.60;47.90;;;;;;6254880;28;20482;-60
2022/12/23 14:22:28;;;;;;;12.03;10.10;;;18.20;48.90;;;;;;6249376;28;20479;-60
2022/12/23 14:25:55;;;;;;;10.80;9.80;;;17.60;49.90;;;;;;6252463;28;21004;-60
2022/12/23 14:29:15;;;;;;;10.30;9.40;;;16.90;51.40;;;;;;6252411;28;20475;-60
2022/12/23 14:32:24;;;;;;;10.93;9.13;;;16.40;53.00;;;;;;6270248;28;20474;-60
2022/12/23 14:35:48;;;;;;;21.63;9.60;;;15.80;54.90;;;;;;6276893;28;20477;-60
2022/12/23 14:39:27;;;;;;;8.73;7.83;;;15.30;56.20;;;;;;6276483;28;20466;-61
2022/12/23 14:42:36;;;;;;;11.20;10.10;;;14.90;57.90;;;;;;6273398;28;20462;-60
2022/12/23 14:45:43;;;;;;;13.90;10.93;;;14.40;59.30;;;;;;6276913;28;20462;-60
2022/12/23 14:49:13;;;;;;;27.53;21.93;;;14.10;61.40;;;;;;6276448;28;20484;-60
2022/12/23 14:52:48;;;;;;;11.33;10.23;;;13.70;63.80;;;;;;6276614;28;20562;-60
2022/12/23 14:56:07;;;;;;;11.10;9.80;;;13.40;66.50;;;;;;6276571;28;20522;-61
2022/12/23 14:59:18;;;;;;;8.80;7.90;;;13.20;69.00;;;;;;6276263;28;21111;-60
2022/12/23 15:02:30;;;;;;;8.13;7.40;;;12.90;72.80;;;;;;6275892;28;20535;-60
2022/12/23 15:05:38;;;;;;;8.23;7.40;;;12.60;75.50;;;;;;6276266;28;20474;-60
2022/12/23 15:08:42;;;;;;;11.00;9.10;;;12.50;78.20;;;;;;6275753;28;21072;-61
2022/12/23 15:11:46;;;;;;;9.10;8.17;;;12.20;81.60;;;;;;6275936;28;20555;-60
2022/12/23 15:14:53;;;;;;;8.90;7.87;;;12.00;84.90;;;;;;6276022;28;20511;-60
2022/12/23 15:18:03;;;;;;;10.07;9.10;;;12.00;87.40;;;;;;6276073;28;20474;-60
2022/12/23 15:21:12;;;;;;;10.40;9.40;;;11.90;90.10;;;;;;6276252;28;20466;-60
2022/12/23 15:24:17;;;;;;;12.50;10.97;;;11.70;91.10;;;;;;6275972;28;20466;-60
2022/12/23 15:27:21;;;;;;;11.70;9.63;;;11.60;92.20;;;;;;6276827;28;20462;-60
2022/12/23 15:30:36;;;;;;;11.13;10.07;;;11.40;93.40;;;;;;6276604;28;20478;-60
2022/12/23 15:33:39;;;;;;;15.10;10.50;;;11.30;94.30;;;;;;6276439;28;20470;-60
2022/12/23 15:37:09;;;;;;;15.10;12.53;;;11.20;95.10;;;;;;6276332;28;20552;-60
2022/12/23 15:40:25;;;;;;;12.20;10.90;;;11.10;96.30;;;;;;6275436;28;20485;-60
2022/12/23 15:43:28;;;;;;;16.03;12.63;;;11.00;97.10;;;;;;6276120;28;20486;-60
2022/12/23 15:46:32;;;;;;;12.90;11.63;;;10.90;97.90;;;;;;6275839;28;20470;-60
2022/12/23 15:49:35;;;;;;;15.77;11.17;;;10.70;98.80;;;;;;6275805;28;21001;-60
2022/12/23 15:52:41;;;;;;;15.90;13.20;;;10.60;99.60;;;;;;6275758;28;20509;-60
2022/12/23 15:55:45;;;;;;;15.80;13.03;;;10.60;99.90;;;;;;6275777;28;20470;-60
2022/12/23 15:58:48;;;;;;;17.13;14.70;;;10.50;99.90;;;;;;6274810;28;20962;-60
2022/12/23 16:01:52;;;;;;;15.50;13.90;;;10.40;99.90;;;;;;6275272;28;20473;-60
2022/12/23 16:04:59;;;;;;;16.00;13.23;;;10.30;99.90;;;;;;6275222;28;20482;-60
2022/12/23 16:08:20;;;;;;;18.07;12.37;;;10.30;99.90;;;;;;6275023;28;20480;-60
2022/12/23 16:11:41;;;;;;;14.87;13.23;;;10.30;99.90;;;;;;6274788;28;20579;-60
2022/12/23 16:14:52;;;;;;;15.87;14.30;;;10.30;99.90;;;;;;6275169;28;20470;-60
2022/12/23 16:18:14;;;;;;;15.43;13.23;;;10.10;99.90;;;;;;6267600;28;20466;-60
2022/12/23 16:21:17;;;;;;;16.00;12.43;;;10.20;99.90;;;;;;6250386;28;20458;-60
2022/12/23 16:24:22;;;;;;;19.50;14.60;;;10.10;99.90;;;;;;6250382;28;20474;-60
2022/12/23 16:27:33;;;;;;;24.50;19.80;;;10.10;99.90;;;;;;6250971;28;20469;-59
2022/12/23 16:30:40;;;;;;;28.90;22.23;;;10.10;99.90;;;;;;6251201;28;20818;-59
2022/12/23 16:33:45;;;;;;;23.80;19.50;;;10.10;99.90;;;;;;6250708;28;20485;-59